Galena, Nevada Weather observations

Data are for 60 minute period ending nearest time listed.
 Day   Time    Ave.   Ave.  Ave.  Vector   Max.   Total    Solar   
  of    of     Air    Rel.  Wind   Wind    Wind  Precip.   Rad.    
Year   Day     Temp.  Hum.  Speed  Dir.    Gust                    
2026   (PST)    F      %     mph   deg.    mph     in.     W/m2    
------------------------------------------------------------------- 
 127   22:00   55.0    36    3.0   260     10.0    1.16       0  
 127   23:00   58.0    12    6.0   259     16.0    1.16       0  
 128    0:00   53.0    16    5.0   265      9.0    1.16       0  
 128    1:00   50.0    23    4.0   296      7.0    1.16       0  
 128    2:00   51.0    17    1.0    44      6.0    1.16       0  
 128    3:00   50.0    19    3.0   230      8.0    1.16       0  
 128    4:00   48.0    22    4.0   267      7.0    1.16       0  
 128    5:00   46.0    28    5.0   268      7.0    1.16       0  
 128    6:00   51.0    30    2.0   345      6.0    1.16      59  
 128    7:00   61.0    25    2.0   101      6.0    1.16     242  
 128    8:00   62.0    26    4.0    69      8.0    1.16     448  
 128    9:00   65.0    21    5.0    65      8.0    1.16     639  
 128   10:00   67.0    15    5.0    53     10.0    1.16     797  
 128   11:00   70.0    16    4.0    42     11.0    1.16     847  
 128   12:00   72.0    15    7.0    53     13.0    1.16     680  
 128   13:00   74.0    13    6.0   105     15.0    1.16     968  
 128   14:00   76.0    13    6.0   167     13.0    1.16     911  
 128   15:00   77.0    11    5.0   320     14.0    1.16     810  
 128   16:00   76.0    11    6.0   270     15.0    1.16     661  
 128   17:00   75.0    13    6.0   299     16.0    1.16     478  
 128   18:00   72.0    19    6.0   274     15.0    1.16      69  
 128   19:00   64.0    27    5.0   282     12.0    1.16      19  
 128   20:00   63.0    34   10.0   283     19.0    1.16       2  
 128   21:00   62.0    29    6.0   303     15.0    1.16       0  

Return to Galena, Nevada graphs page.


Western Regional Climate Center,wrcc@dri.edu